Main page
METAR-TAF:

METAR-TAF

Airports :

Cherbourg, France

Cherbourg – Maupertus Airport

latitude: 49-39N, longitude: 001-28W, elevation: 138 m

Current weather observation

The report was made 18 minutes ago, at 17:30 UTC
Wind 7 kt from the West/Northwest, varying between West and North/Northwest
Temperature 10°C
Humidity 76%
Pressure 1018 hPa
Visibility 10 km or more
Scattered clouds at a height of 3900 ft
Overcast at a height of 5200 ft

METAR: LFRC 281730Z AUTO 29007KT 270V330 9999 SCT039 OVC052 10/06 Q1018 NOSIG

Time: 19:48 (17:48 UTC)

Forecast

The report was made 3 hours and 48 minutes ago, at 14:00 UTC
Forecast valid from 28 at 15 UTC to 28 at 24 UTC
Wind 10 kt from the Northwest
Visibility 10 km or more
Scattered clouds at a height of 3000 ft
Becoming
from 28 at 19 UTC to 28 at 21 UTC
Wind 3 kt from variable directions
Becoming
from 28 at 22 UTC to 28 at 24 UTC
Visibility: 3000 m
mist

TAF: LFRC 281400Z 2815/2824 31010KT 9999 SCT030 BECMG 2819/2821 VRB03KT BECMG 2822/2824 3000 BR

Weather observations and forecasts of more than 4000 airports (METAR and TAF reports).

The available stations are represented by yellow and red dots on the map.

Hover mouse over dot to see the name of the station.

Then click to see weather observations and forecasts.

To change the map : click on the green buttons with a black cross to zoom in, on the green button with a dash to zoom out, or on the green arrows for adjacent maps.


METAR-TAF: